Time;durP1;ratioP1;P1;durP2;ratioP2;P2;SDS_P1;SDS_P2;PMS_P1;PMS_P2;Temp;Humidity;BMP_temperature;BMP_pressure;BME280_temperature;BME280_humidity;BME280_pressure;Samples;Min_cycle;Max_cycle;Signal;HPM_P1;HPM_P2
2023/05/04 00:08:06;;;;;;;;;;;22.80;37.50;;;;;;21169777;28;19924;-54
2023/05/04 00:18:08;;;;;;;;;;;22.70;38.20;;;;;;21167975;28;19972;-54
2023/05/04 00:28:09;;;;;;;;;;;22.50;39.10;;;;;;21168173;28;20011;-53
2023/05/04 00:38:11;;;;;;;;;;;22.40;39.60;;;;;;21166651;28;19923;-54
2023/05/04 00:48:13;;;;;;;;;;;22.40;40.10;;;;;;21165326;28;19923;-55
2023/05/04 00:58:14;;;;;;;;;;;22.10;41.10;;;;;;21164824;28;19977;-54
2023/05/04 01:08:17;;;;;;;;;;;22.00;41.60;;;;;;21163491;28;19927;-55
2023/05/04 01:18:18;;;;;;;;;;;22.00;41.90;;;;;;21163208;28;19924;-54
2023/05/04 01:28:24;;;;;;;;;;;21.90;42.10;;;;;;21163111;28;19924;-54
2023/05/04 01:38:25;;;;;;;;;;;21.70;42.50;;;;;;21161591;28;19930;-53
2023/05/04 01:48:26;;;;;;;;;;;21.40;43.40;;;;;;21161683;28;19927;-54
2023/05/04 01:58:28;;;;;;;;;;;21.30;43.40;;;;;;21161265;28;19924;-54
2023/05/04 02:08:29;;;;;;;;;;;21.50;43.30;;;;;;21160739;28;19971;-54
2023/05/04 02:18:31;;;;;;;;;;;21.20;44.00;;;;;;21161050;28;19924;-54
2023/05/04 02:28:32;;;;;;;;;;;21.00;44.70;;;;;;21160256;28;19934;-55
2023/05/04 02:38:33;;;;;;;;;;;20.70;45.40;;;;;;21173050;28;19930;-53
2023/05/04 02:48:35;;;;;;;;;;;20.60;45.90;;;;;;21176315;28;19930;-54
2023/05/04 02:58:36;;;;;;;;;;;20.60;46.90;;;;;;21175421;28;19930;-54
2023/05/04 03:08:37;;;;;;;;;;;20.30;47.60;;;;;;21173765;28;19928;-54
2023/05/04 03:18:39;;;;;;;;;;;20.20;48.20;;;;;;21171460;28;20284;-54
2023/05/04 03:28:40;;;;;;;;;;;20.10;48.80;;;;;;21172365;28;20345;-53
2023/05/04 03:38:41;;;;;;;;;;;20.00;49.70;;;;;;21171535;28;20260;-54
2023/05/04 03:48:43;;;;;;;;;;;19.80;50.30;;;;;;21170313;28;20406;-54
2023/05/04 03:58:44;;;;;;;;;;;19.70;50.80;;;;;;21170049;28;19924;-54
2023/05/04 04:08:45;;;;;;;;;;;19.60;51.20;;;;;;21168072;28;19923;-55
2023/05/04 04:18:47;;;;;;;;;;;19.40;51.50;;;;;;21167647;28;19923;-55
2023/05/04 04:28:49;;;;;;;;;;;19.30;51.70;;;;;;21167747;28;19924;-53
2023/05/04 04:38:51;;;;;;;;;;;19.20;52.40;;;;;;21166396;28;19932;-54
2023/05/04 04:48:53;;;;;;;;;;;19.10;52.80;;;;;;21165999;28;19935;-55
2023/05/04 04:58:54;;;;;;;;;;;19.00;53.20;;;;;;21165792;28;20330;-53
2023/05/04 05:08:55;;;;;;;;;;;18.90;53.70;;;;;;21166117;28;19923;-54
2023/05/04 05:18:57;;;;;;;;;;;18.70;54.80;;;;;;21148029;28;20019;-55
2023/05/04 05:28:58;;;;;;;;;;;18.20;56.20;;;;;;21165317;28;20206;-54
2023/05/04 05:39:00;;;;;;;;;;;18.20;56.50;;;;;;21164139;28;20292;-53
2023/05/04 05:49:01;;;;;;;;;;;18.30;56.00;;;;;;21162963;28;19924;-54
2023/05/04 05:59:03;;;;;;;;;;;18.30;56.30;;;;;;21163685;28;19927;-54
2023/05/04 06:09:04;;;;;;;;;;;18.20;56.40;;;;;;21169984;28;19957;-55
2023/05/04 06:19:06;;;;;;;;;;;18.30;56.50;;;;;;21178123;28;19946;-54
2023/05/04 06:29:07;;;;;;;;;;;18.20;56.20;;;;;;21177551;28;19923;-56
2023/05/04 06:39:09;;;;;;;;;;;18.40;55.80;;;;;;21176882;28;20061;-54
2023/05/04 06:49:11;;;;;;;;;;;19.20;53.50;;;;;;21176084;28;19932;-53
2023/05/04 06:59:12;;;;;;;;;;;19.90;51.90;;;;;;21176373;28;19967;-54
2023/05/04 07:09:14;;;;;;;;;;;20.00;51.10;;;;;;21174396;28;19932;-54
2023/05/04 07:19:15;;;;;;;;;;;20.40;49.40;;;;;;21172510;28;19940;-53
2023/05/04 07:29:17;;;;;;;;;;;21.10;46.90;;;;;;21173727;28;19924;-54
2023/05/04 07:39:17;;;;;;;;;;;21.20;46.20;;;;;;21171935;28;19923;-54
2023/05/04 07:49:18;;;;;;;;;;;21.70;44.60;;;;;;21171787;28;20325;-54
2023/05/04 07:59:19;;;;;;;;;;;22.30;42.30;;;;;;21170876;28;19970;-54
2023/05/04 08:09:19;;;;;;;;;;;22.20;40.60;;;;;;21170106;28;19950;-53
2023/05/04 08:19:20;;;;;;;;;;;22.30;39.60;;;;;;21167528;28;19943;-54
2023/05/04 08:29:21;;;;;;;;;;;22.40;38.70;;;;;;21168355;28;19924;-54
2023/05/04 08:39:22;;;;;;;;;;;22.70;38.30;;;;;;21167667;28;19924;-54
2023/05/04 08:49:23;;;;;;;;;;;22.20;39.20;;;;;;21166930;28;19935;-54
2023/05/04 08:59:24;;;;;;;;;;;22.10;38.40;;;;;;21164409;28;19924;-54
2023/05/04 09:09:26;;;;;;;;;;;22.10;39.40;;;;;;21166276;28;19945;-54
2023/05/04 09:19:33;;;;;;;;;;;22.50;36.40;;;;;;21162121;28;19981;-58
2023/05/04 09:29:38;;;;;;;;;;;22.60;38.70;;;;;;21159144;28;19950;-58
2023/05/04 09:39:48;;;;;;;;;;;23.10;36.90;;;;;;21160066;28;19931;-56
2023/05/04 09:49:48;;;;;;;;;;;22.70;37.60;;;;;;21151833;28;19935;-56
2023/05/04 09:59:50;;;;;;;;;;;22.60;36.50;;;;;;21160232;28;20241;-55
2023/05/04 10:09:51;;;;;;;;;;;23.10;36.10;;;;;;21168784;28;19984;-58
2023/05/04 10:20:06;;;;;;;;;;;23.60;34.40;;;;;;21146680;28;19928;-57
2023/05/04 10:30:07;;;;;;;;;;;23.20;32.90;;;;;;21143565;28;19931;-57
2023/05/04 10:40:07;;;;;;;;;;;23.40;33.20;;;;;;21155949;28;20368;-58
2023/05/04 10:50:09;;;;;;;;;;;23.20;33.60;;;;;;21150504;28;19957;-57
2023/05/04 11:00:10;;;;;;;;;;;23.40;32.60;;;;;;21161335;27;20281;-59
2023/05/04 11:10:12;;;;;;;;;;;;;;;;;;21183181;27;19967;-56
2023/05/04 11:20:19;;;;;;;;;;;23.50;29.90;;;;;;21131163;27;20481;-55
2023/05/04 11:30:20;;;;;;;;;;;23.70;27.60;;;;;;21170632;27;20293;-56
2023/05/04 11:40:22;;;;;;;;;;;24.00;29.30;;;;;;21168458;28;20285;-54
2023/05/04 11:50:24;;;;;;;;;;;24.20;27.80;;;;;;21159568;28;19954;-54
2023/05/04 12:00:36;;;;;;;;;;;24.40;27.20;;;;;;21170079;28;19945;-54
2023/05/04 12:10:36;;;;;;;;;;;24.60;26.80;;;;;;21163203;28;20423;-54
2023/05/04 12:20:37;;;;;;;;;;;24.70;24.70;;;;;;21162181;28;20272;-54
2023/05/04 12:30:38;;;;;;;;;;;24.80;24.60;;;;;;21168953;28;19924;-53
2023/05/04 12:40:38;;;;;;;;;;;24.90;25.00;;;;;;21167084;28;19993;-56
2023/05/04 12:50:39;;;;;;;;;;;25.00;25.80;;;;;;21165373;28;19924;-54
2023/05/04 13:00:40;;;;;;;;;;;25.10;26.00;;;;;;21165413;28;19924;-54
2023/05/04 13:10:40;;;;;;;;;;;25.10;25.40;;;;;;21164537;28;19924;-55
2023/05/04 13:20:41;;;;;;;;;;;25.20;26.00;;;;;;21164262;28;20015;-55
2023/05/04 13:30:42;;;;;;;;;;;25.40;24.10;;;;;;21163147;28;19974;-55
2023/05/04 13:40:42;;;;;;;;;;;25.60;23.40;;;;;;21164151;28;19938;-55
2023/05/04 13:50:43;;;;;;;;;;;25.60;21.40;;;;;;21163093;28;19928;-56
2023/05/04 14:00:44;;;;;;;;;;;25.50;23.20;;;;;;21163284;28;20388;-54
2023/05/04 14:10:44;;;;;;;;;;;25.80;22.60;;;;;;21161690;28;20000;-54
2023/05/04 14:20:47;;;;;;;;;;;25.70;20.70;;;;;;21160975;28;20004;-55
2023/05/04 14:30:47;;;;;;;;;;;25.70;21.80;;;;;;21170126;28;19924;-55
2023/05/04 14:40:48;;;;;;;;;;;25.90;21.30;;;;;;21178668;28;19930;-55
2023/05/04 14:50:48;;;;;;;;;;;25.90;20.40;;;;;;21176523;28;20014;-54
2023/05/04 15:00:49;;;;;;;;;;;26.00;20.60;;;;;;21176827;28;20392;-55
2023/05/04 15:10:50;;;;;;;;;;;26.00;21.70;;;;;;21174894;28;19968;-55
2023/05/04 15:20:51;;;;;;;;;;;26.10;21.40;;;;;;21174357;28;20347;-54
2023/05/04 15:30:51;;;;;;;;;;;26.10;20.90;;;;;;21172668;28;20342;-54
2023/05/04 15:40:52;;;;;;;;;;;26.10;21.80;;;;;;21172610;28;19972;-54
2023/05/04 15:50:53;;;;;;;;;;;26.10;22.50;;;;;;21172578;28;19924;-53
2023/05/04 16:00:54;;;;;;;;;;;25.90;21.80;;;;;;21171135;28;19934;-54
2023/05/04 16:10:56;;;;;;;;;;;25.70;22.10;;;;;;21169637;28;19928;-55
2023/05/04 16:20:56;;;;;;;;;;;25.90;22.30;;;;;;21169188;28;20410;-55
2023/05/04 16:30:57;;;;;;;;;;;25.80;22.20;;;;;;21167315;28;20418;-56
2023/05/04 16:40:57;;;;;;;;;;;25.80;21.10;;;;;;21167968;28;19924;-57
2023/05/04 16:50:58;;;;;;;;;;;25.70;21.40;;;;;;21167434;28;19946;-55
2023/05/04 17:00:59;;;;;;;;;;;25.60;21.40;;;;;;21166465;28;19923;-56
2023/05/04 17:10:59;;;;;;;;;;;25.60;22.40;;;;;;21166146;28;19924;-54
2023/05/04 17:21:00;;;;;;;;;;;25.40;21.50;;;;;;21164214;28;19923;-55
2023/05/04 17:31:01;;;;;;;;;;;25.40;22.20;;;;;;21162531;28;19987;-56
2023/05/04 17:41:03;;;;;;;;;;;25.20;22.50;;;;;;21162696;28;20188;-55
2023/05/04 17:51:10;;;;;;;;;;;25.10;22.40;;;;;;21163320;28;19973;-56
2023/05/04 18:01:11;;;;;;;;;;;25.10;22.50;;;;;;21160864;28;19924;-55
2023/05/04 18:11:12;;;;;;;;;;;24.80;23.00;;;;;;21179671;28;19930;-55
2023/05/04 18:21:12;;;;;;;;;;;24.70;23.20;;;;;;21177962;28;19931;-54
2023/05/04 18:31:13;;;;;;;;;;;24.60;21.70;;;;;;21177849;28;19953;-55
2023/05/04 18:41:14;;;;;;;;;;;24.30;22.40;;;;;;21175495;28;19961;-55
2023/05/04 18:51:14;;;;;;;;;;;24.20;21.20;;;;;;21174872;28;19923;-54
2023/05/04 19:01:15;;;;;;;;;;;24.10;21.10;;;;;;21174357;28;19928;-55
2023/05/04 19:11:15;;;;;;;;;;;24.00;23.40;;;;;;21175139;28;19948;-54
2023/05/04 19:21:16;;;;;;;;;;;23.80;22.70;;;;;;21172611;28;19989;-55
2023/05/04 19:31:17;;;;;;;;;;;23.60;22.40;;;;;;21171139;28;20281;-55
2023/05/04 19:41:17;;;;;;;;;;;23.40;22.80;;;;;;21171001;28;19924;-53
2023/05/04 19:51:18;;;;;;;;;;;23.40;22.80;;;;;;21171079;28;19924;-55
2023/05/04 20:01:19;;;;;;;;;;;23.10;23.40;;;;;;21171524;28;19976;-55
2023/05/04 20:11:20;;;;;;;;;;;22.90;24.50;;;;;;21169539;28;20014;-54
2023/05/04 20:21:20;;;;;;;;;;;22.70;26.70;;;;;;21171192;28;20430;-55
2023/05/04 20:31:21;;;;;;;;;;;22.40;28.30;;;;;;21167032;28;19927;-54
2023/05/04 20:41:22;;;;;;;;;;;22.40;29.00;;;;;;21166337;28;19970;-55
2023/05/04 20:51:23;;;;;;;;;;;22.30;29.00;;;;;;21166937;28;20388;-56
2023/05/04 21:01:24;;;;;;;;;;;22.30;29.20;;;;;;21165901;28;19928;-54
2023/05/04 21:11:25;;;;;;;;;;;22.10;29.10;;;;;;21164190;28;19928;-55
2023/05/04 21:21:25;;;;;;;;;;;22.20;28.80;;;;;;21163687;28;19924;-55
2023/05/04 21:31:26;;;;;;;;;;;22.10;29.10;;;;;;21163487;28;20281;-55
2023/05/04 21:41:26;;;;;;;;;;;22.00;29.10;;;;;;21163455;28;19934;-55
2023/05/04 21:51:27;;;;;;;;;;;21.80;29.60;;;;;;21162733;28;20394;-55
2023/05/04 22:01:28;;;;;;;;;;;21.70;30.80;;;;;;21162357;28;20253;-56
2023/05/04 22:11:29;;;;;;;;;;;21.60;31.90;;;;;;21163337;28;19931;-54
2023/05/04 22:21:31;;;;;;;;;;;21.40;32.50;;;;;;21160917;28;20053;-55
2023/05/04 22:31:31;;;;;;;;;;;21.20;33.30;;;;;;21160937;28;20055;-56
2023/05/04 22:41:32;;;;;;;;;;;21.20;33.60;;;;;;21159976;28;19971;-55
2023/05/04 22:51:33;;;;;;;;;;;21.10;34.00;;;;;;21168167;28;20433;-55
2023/05/04 23:01:33;;;;;;;;;;;21.00;34.20;;;;;;21175674;28;20288;-55
2023/05/04 23:11:34;;;;;;;;;;;20.80;34.30;;;;;;21175092;28;19977;-55
2023/05/04 23:21:35;;;;;;;;;;;20.80;34.60;;;;;;21173051;28;19923;-54
2023/05/04 23:31:35;;;;;;;;;;;20.50;35.20;;;;;;21173211;28;19924;-54
2023/05/04 23:41:37;;;;;;;;;;;20.40;35.40;;;;;;21172310;28;19934;-54
2023/05/04 23:51:37;;;;;;;;;;;20.20;35.80;;;;;;21170309;28;19978;-55
